sensor_id;sensor_type;location;lat;lon;timestamp;P1;durP1;ratioP1;P2;durP2;ratioP2
13230;SDS011;6681;53.254;10.398;2023-03-31T00:02:00;8.17;;;3.20;;
13230;SDS011;6681;53.254;10.398;2023-03-31T00:04:26;10.57;;;4.30;;
13230;SDS011;6681;53.254;10.398;2023-03-31T00:06:55;11.13;;;4.50;;
13230;SDS011;6681;53.254;10.398;2023-03-31T00:09:21;12.97;;;4.73;;
13230;SDS011;6681;53.254;10.398;2023-03-31T00:11:47;10.33;;;4.30;;
13230;SDS011;6681;53.254;10.398;2023-03-31T00:14:13;10.57;;;3.33;;
13230;SDS011;6681;53.254;10.398;2023-03-31T00:16:41;10.93;;;3.40;;
13230;SDS011;6681;53.254;10.398;2023-03-31T00:19:08;8.90;;;3.77;;
13230;SDS011;6681;53.254;10.398;2023-03-31T00:21:42;10.17;;;4.03;;
13230;SDS011;6681;53.254;10.398;2023-03-31T00:24:09;12.27;;;4.53;;
13230;SDS011;6681;53.254;10.398;2023-03-31T00:26:36;9.53;;;3.40;;
13230;SDS011;6681;53.254;10.398;2023-03-31T00:29:05;12.40;;;3.87;;
13230;SDS011;6681;53.254;10.398;2023-03-31T00:31:32;9.43;;;3.70;;
13230;SDS011;6681;53.254;10.398;2023-03-31T00:33:58;9.77;;;4.00;;
13230;SDS011;6681;53.254;10.398;2023-03-31T00:36:24;12.07;;;4.30;;
13230;SDS011;6681;53.254;10.398;2023-03-31T00:38:56;13.50;;;4.07;;
13230;SDS011;6681;53.254;10.398;2023-03-31T00:41:31;8.13;;;3.50;;
13230;SDS011;6681;53.254;10.398;2023-03-31T00:44:16;13.13;;;4.27;;
13230;SDS011;6681;53.254;10.398;2023-03-31T00:49:27;12.73;;;5.37;;
13230;SDS011;6681;53.254;10.398;2023-03-31T00:52:04;8.50;;;4.47;;
13230;SDS011;6681;53.254;10.398;2023-03-31T00:54:37;13.40;;;4.57;;
13230;SDS011;6681;53.254;10.398;2023-03-31T00:57:05;16.67;;;6.40;;
13230;SDS011;6681;53.254;10.398;2023-03-31T00:59:43;9.60;;;5.03;;
13230;SDS011;6681;53.254;10.398;2023-03-31T01:02:13;9.40;;;4.60;;
13230;SDS011;6681;53.254;10.398;2023-03-31T01:04:43;12.83;;;5.63;;
13230;SDS011;6681;53.254;10.398;2023-03-31T01:09:59;9.43;;;5.57;;
13230;SDS011;6681;53.254;10.398;2023-03-31T01:12:27;10.00;;;6.07;;
13230;SDS011;6681;53.254;10.398;2023-03-31T01:14:53;17.90;;;5.80;;
13230;SDS011;6681;53.254;10.398;2023-03-31T01:17:20;13.63;;;6.10;;
13230;SDS011;6681;53.254;10.398;2023-03-31T01:19:53;14.50;;;6.30;;
13230;SDS011;6681;53.254;10.398;2023-03-31T01:25:39;13.77;;;6.27;;
13230;SDS011;6681;53.254;10.398;2023-03-31T01:29:07;11.23;;;6.43;;
13230;SDS011;6681;53.254;10.398;2023-03-31T01:42:16;12.00;;;7.07;;
13230;SDS011;6681;53.254;10.398;2023-03-31T01:47:19;11.17;;;5.97;;
13230;SDS011;6681;53.254;10.398;2023-03-31T01:55:38;17.00;;;6.63;;
13230;SDS011;6681;53.254;10.398;2023-03-31T01:58:18;12.57;;;6.03;;
13230;SDS011;6681;53.254;10.398;2023-03-31T02:00:52;12.67;;;7.13;;
13230;SDS011;6681;53.254;10.398;2023-03-31T02:03:25;11.20;;;6.73;;
13230;SDS011;6681;53.254;10.398;2023-03-31T02:05:57;14.27;;;6.20;;
13230;SDS011;6681;53.254;10.398;2023-03-31T02:08:29;16.53;;;7.00;;
13230;SDS011;6681;53.254;10.398;2023-03-31T02:11:00;13.23;;;7.43;;
13230;SDS011;6681;53.254;10.398;2023-03-31T02:13:26;16.60;;;7.17;;
13230;SDS011;6681;53.254;10.398;2023-03-31T02:15:56;14.90;;;6.63;;
13230;SDS011;6681;53.254;10.398;2023-03-31T02:18:27;14.77;;;7.97;;
13230;SDS011;6681;53.254;10.398;2023-03-31T02:20:57;11.10;;;7.40;;
13230;SDS011;6681;53.254;10.398;2023-03-31T02:23:25;13.30;;;8.80;;
13230;SDS011;6681;53.254;10.398;2023-03-31T02:26:03;22.00;;;8.43;;
13230;SDS011;6681;53.254;10.398;2023-03-31T02:28:33;15.73;;;7.43;;
13230;SDS011;6681;53.254;10.398;2023-03-31T02:33:35;14.97;;;7.93;;
13230;SDS011;6681;53.254;10.398;2023-03-31T02:36:01;12.63;;;6.83;;
13230;SDS011;6681;53.254;10.398;2023-03-31T02:38:28;15.07;;;7.17;;
13230;SDS011;6681;53.254;10.398;2023-03-31T02:40:58;18.13;;;9.23;;
13230;SDS011;6681;53.254;10.398;2023-03-31T02:43:24;13.30;;;7.77;;
13230;SDS011;6681;53.254;10.398;2023-03-31T02:45:50;12.70;;;9.13;;
13230;SDS011;6681;53.254;10.398;2023-03-31T02:48:17;12.23;;;7.73;;
13230;SDS011;6681;53.254;10.398;2023-03-31T02:50:53;15.97;;;8.37;;
13230;SDS011;6681;53.254;10.398;2023-03-31T03:04:49;18.37;;;9.33;;
13230;SDS011;6681;53.254;10.398;2023-03-31T03:07:33;20.07;;;8.13;;
13230;SDS011;6681;53.254;10.398;2023-03-31T03:15:34;17.93;;;9.90;;
13230;SDS011;6681;53.254;10.398;2023-03-31T03:18:06;13.77;;;8.07;;
13230;SDS011;6681;53.254;10.398;2023-03-31T03:20:32;16.00;;;9.83;;
13230;SDS011;6681;53.254;10.398;2023-03-31T03:22:59;16.80;;;8.90;;
13230;SDS011;6681;53.254;10.398;2023-03-31T03:25:26;19.17;;;8.97;;
13230;SDS011;6681;53.254;10.398;2023-03-31T03:27:54;14.70;;;8.90;;
13230;SDS011;6681;53.254;10.398;2023-03-31T03:30:19;15.97;;;8.50;;
13230;SDS011;6681;53.254;10.398;2023-03-31T03:32:46;12.87;;;7.97;;
13230;SDS011;6681;53.254;10.398;2023-03-31T03:35:11;14.43;;;8.33;;
13230;SDS011;6681;53.254;10.398;2023-03-31T03:37:37;14.80;;;8.47;;
13230;SDS011;6681;53.254;10.398;2023-03-31T03:40:03;21.60;;;9.10;;
13230;SDS011;6681;53.254;10.398;2023-03-31T03:42:30;17.03;;;9.30;;
13230;SDS011;6681;53.254;10.398;2023-03-31T03:44:56;18.53;;;8.30;;
13230;SDS011;6681;53.254;10.398;2023-03-31T03:47:22;17.03;;;10.40;;
13230;SDS011;6681;53.254;10.398;2023-03-31T03:49:48;13.37;;;9.07;;
13230;SDS011;6681;53.254;10.398;2023-03-31T03:52:14;13.33;;;8.13;;
13230;SDS011;6681;53.254;10.398;2023-03-31T03:54:39;17.77;;;8.07;;
13230;SDS011;6681;53.254;10.398;2023-03-31T03:57:05;16.80;;;8.50;;
13230;SDS011;6681;53.254;10.398;2023-03-31T03:59:31;18.57;;;8.43;;
13230;SDS011;6681;53.254;10.398;2023-03-31T04:01:57;16.80;;;8.13;;
13230;SDS011;6681;53.254;10.398;2023-03-31T04:04:23;12.70;;;6.60;;
13230;SDS011;6681;53.254;10.398;2023-03-31T04:06:48;14.03;;;7.30;;
13230;SDS011;6681;53.254;10.398;2023-03-31T04:09:14;14.77;;;7.47;;
13230;SDS011;6681;53.254;10.398;2023-03-31T04:11:40;15.07;;;6.73;;
13230;SDS011;6681;53.254;10.398;2023-03-31T04:14:06;18.17;;;7.13;;
13230;SDS011;6681;53.254;10.398;2023-03-31T04:16:31;11.40;;;6.77;;
13230;SDS011;6681;53.254;10.398;2023-03-31T04:18:58;15.93;;;6.70;;
13230;SDS011;6681;53.254;10.398;2023-03-31T04:21:27;15.40;;;6.87;;
13230;SDS011;6681;53.254;10.398;2023-03-31T04:23:54;15.30;;;7.03;;
13230;SDS011;6681;53.254;10.398;2023-03-31T04:26:26;14.73;;;6.53;;
13230;SDS011;6681;53.254;10.398;2023-03-31T04:28:58;10.27;;;6.27;;
13230;SDS011;6681;53.254;10.398;2023-03-31T04:31:26;15.97;;;7.00;;
13230;SDS011;6681;53.254;10.398;2023-03-31T04:33:54;19.63;;;7.80;;
13230;SDS011;6681;53.254;10.398;2023-03-31T04:36:26;13.87;;;7.23;;
13230;SDS011;6681;53.254;10.398;2023-03-31T04:38:53;11.87;;;5.83;;
13230;SDS011;6681;53.254;10.398;2023-03-31T04:41:19;15.77;;;6.43;;
13230;SDS011;6681;53.254;10.398;2023-03-31T04:43:45;15.07;;;6.47;;
13230;SDS011;6681;53.254;10.398;2023-03-31T04:46:11;12.33;;;5.97;;
13230;SDS011;6681;53.254;10.398;2023-03-31T04:48:37;12.93;;;6.50;;
13230;SDS011;6681;53.254;10.398;2023-03-31T04:51:03;13.87;;;5.83;;
13230;SDS011;6681;53.254;10.398;2023-03-31T04:53:28;10.00;;;5.67;;
13230;SDS011;6681;53.254;10.398;2023-03-31T04:55:54;18.20;;;7.73;;
13230;SDS011;6681;53.254;10.398;2023-03-31T04:58:20;12.87;;;6.60;;
13230;SDS011;6681;53.254;10.398;2023-03-31T05:00:46;10.40;;;5.60;;
13230;SDS011;6681;53.254;10.398;2023-03-31T05:03:11;12.30;;;6.23;;
13230;SDS011;6681;53.254;10.398;2023-03-31T05:05:37;13.77;;;6.30;;
13230;SDS011;6681;53.254;10.398;2023-03-31T05:08:03;16.30;;;7.77;;
13230;SDS011;6681;53.254;10.398;2023-03-31T05:10:29;10.60;;;5.33;;
13230;SDS011;6681;53.254;10.398;2023-03-31T05:12:55;10.97;;;6.03;;
13230;SDS011;6681;53.254;10.398;2023-03-31T05:15:21;13.37;;;6.97;;
13230;SDS011;6681;53.254;10.398;2023-03-31T05:17:48;10.97;;;7.07;;
13230;SDS011;6681;53.254;10.398;2023-03-31T05:20:15;16.83;;;5.73;;
13230;SDS011;6681;53.254;10.398;2023-03-31T05:22:41;12.67;;;6.13;;
13230;SDS011;6681;53.254;10.398;2023-03-31T05:25:07;14.73;;;6.00;;
13230;SDS011;6681;53.254;10.398;2023-03-31T05:27:34;9.83;;;5.50;;
13230;SDS011;6681;53.254;10.398;2023-03-31T05:30:00;9.73;;;5.23;;
13230;SDS011;6681;53.254;10.398;2023-03-31T05:32:27;10.80;;;4.50;;
13230;SDS011;6681;53.254;10.398;2023-03-31T05:34:53;13.27;;;6.33;;
13230;SDS011;6681;53.254;10.398;2023-03-31T05:37:25;10.43;;;5.27;;
13230;SDS011;6681;53.254;10.398;2023-03-31T05:39:51;10.23;;;5.40;;
13230;SDS011;6681;53.254;10.398;2023-03-31T05:42:17;8.50;;;5.43;;
13230;SDS011;6681;53.254;10.398;2023-03-31T05:44:46;10.80;;;5.90;;
13230;SDS011;6681;53.254;10.398;2023-03-31T05:47:12;11.03;;;4.60;;
13230;SDS011;6681;53.254;10.398;2023-03-31T05:49:38;10.57;;;5.20;;
13230;SDS011;6681;53.254;10.398;2023-03-31T05:52:12;10.23;;;5.53;;
13230;SDS011;6681;53.254;10.398;2023-03-31T05:54:38;11.33;;;5.80;;
13230;SDS011;6681;53.254;10.398;2023-03-31T05:57:04;10.67;;;4.63;;
13230;SDS011;6681;53.254;10.398;2023-03-31T05:59:30;12.13;;;4.83;;
13230;SDS011;6681;53.254;10.398;2023-03-31T06:01:56;14.27;;;5.00;;
13230;SDS011;6681;53.254;10.398;2023-03-31T06:04:22;17.20;;;4.90;;
13230;SDS011;6681;53.254;10.398;2023-03-31T06:06:48;8.90;;;4.13;;
13230;SDS011;6681;53.254;10.398;2023-03-31T06:09:14;17.13;;;5.23;;
13230;SDS011;6681;53.254;10.398;2023-03-31T06:11:46;10.97;;;4.67;;
13230;SDS011;6681;53.254;10.398;2023-03-31T06:14:11;9.20;;;4.67;;
13230;SDS011;6681;53.254;10.398;2023-03-31T06:16:37;18.23;;;5.30;;
13230;SDS011;6681;53.254;10.398;2023-03-31T06:19:03;9.13;;;4.30;;
13230;SDS011;6681;53.254;10.398;2023-03-31T06:21:28;9.90;;;4.33;;
13230;SDS011;6681;53.254;10.398;2023-03-31T06:23:54;7.60;;;4.27;;
13230;SDS011;6681;53.254;10.398;2023-03-31T06:26:22;7.97;;;4.03;;
13230;SDS011;6681;53.254;10.398;2023-03-31T06:28:48;7.77;;;4.27;;
13230;SDS011;6681;53.254;10.398;2023-03-31T06:31:18;11.97;;;4.23;;
13230;SDS011;6681;53.254;10.398;2023-03-31T06:33:46;12.93;;;5.47;;
13230;SDS011;6681;53.254;10.398;2023-03-31T06:36:13;6.57;;;4.73;;
13230;SDS011;6681;53.254;10.398;2023-03-31T06:38:41;11.77;;;4.40;;
13230;SDS011;6681;53.254;10.398;2023-03-31T06:41:08;7.07;;;3.77;;
13230;SDS011;6681;53.254;10.398;2023-03-31T06:43:36;8.17;;;4.07;;
13230;SDS011;6681;53.254;10.398;2023-03-31T06:46:01;11.87;;;4.27;;
13230;SDS011;6681;53.254;10.398;2023-03-31T06:48:27;19.17;;;5.47;;
13230;SDS011;6681;53.254;10.398;2023-03-31T06:50:53;8.47;;;3.30;;
13230;SDS011;6681;53.254;10.398;2023-03-31T06:53:20;12.03;;;4.10;;
13230;SDS011;6681;53.254;10.398;2023-03-31T06:55:46;10.53;;;3.57;;
13230;SDS011;6681;53.254;10.398;2023-03-31T06:58:11;4.03;;;2.67;;
13230;SDS011;6681;53.254;10.398;2023-03-31T07:00:37;7.87;;;3.40;;
13230;SDS011;6681;53.254;10.398;2023-03-31T07:03:03;5.03;;;2.87;;
13230;SDS011;6681;53.254;10.398;2023-03-31T07:05:29;10.17;;;3.10;;
13230;SDS011;6681;53.254;10.398;2023-03-31T07:07:55;4.57;;;2.83;;
13230;SDS011;6681;53.254;10.398;2023-03-31T07:10:23;14.37;;;2.90;;
13230;SDS011;6681;53.254;10.398;2023-03-31T07:12:50;6.37;;;3.40;;
13230;SDS011;6681;53.254;10.398;2023-03-31T07:15:15;7.43;;;3.50;;
13230;SDS011;6681;53.254;10.398;2023-03-31T07:17:41;4.83;;;2.17;;
13230;SDS011;6681;53.254;10.398;2023-03-31T07:20:08;5.93;;;2.87;;
13230;SDS011;6681;53.254;10.398;2023-03-31T07:22:36;11.27;;;3.70;;
13230;SDS011;6681;53.254;10.398;2023-03-31T07:25:03;9.27;;;2.67;;
13230;SDS011;6681;53.254;10.398;2023-03-31T07:27:28;3.87;;;2.33;;
13230;SDS011;6681;53.254;10.398;2023-03-31T07:29:54;6.30;;;2.37;;
13230;SDS011;6681;53.254;10.398;2023-03-31T07:32:20;7.60;;;2.40;;
13230;SDS011;6681;53.254;10.398;2023-03-31T07:34:47;9.40;;;3.10;;
13230;SDS011;6681;53.254;10.398;2023-03-31T07:37:13;5.40;;;2.47;;
13230;SDS011;6681;53.254;10.398;2023-03-31T07:39:38;6.07;;;2.20;;
13230;SDS011;6681;53.254;10.398;2023-03-31T07:42:04;5.90;;;2.23;;
13230;SDS011;6681;53.254;10.398;2023-03-31T07:44:32;5.43;;;2.30;;
13230;SDS011;6681;53.254;10.398;2023-03-31T07:47:01;6.93;;;2.30;;
13230;SDS011;6681;53.254;10.398;2023-03-31T07:49:34;6.40;;;2.60;;
13230;SDS011;6681;53.254;10.398;2023-03-31T07:52:00;3.80;;;2.10;;
13230;SDS011;6681;53.254;10.398;2023-03-31T07:54:27;7.67;;;3.03;;
13230;SDS011;6681;53.254;10.398;2023-03-31T07:56:52;6.77;;;2.77;;
13230;SDS011;6681;53.254;10.398;2023-03-31T07:59:18;7.83;;;2.67;;
13230;SDS011;6681;53.254;10.398;2023-03-31T08:01:44;7.00;;;2.43;;
13230;SDS011;6681;53.254;10.398;2023-03-31T08:04:19;5.73;;;1.90;;
13230;SDS011;6681;53.254;10.398;2023-03-31T08:06:47;4.47;;;2.57;;
13230;SDS011;6681;53.254;10.398;2023-03-31T08:09:12;8.87;;;2.50;;
13230;SDS011;6681;53.254;10.398;2023-03-31T08:11:38;8.30;;;3.13;;
13230;SDS011;6681;53.254;10.398;2023-03-31T08:14:03;9.90;;;3.00;;
13230;SDS011;6681;53.254;10.398;2023-03-31T08:16:29;3.97;;;2.07;;
13230;SDS011;6681;53.254;10.398;2023-03-31T08:18:55;9.60;;;2.83;;
13230;SDS011;6681;53.254;10.398;2023-03-31T08:21:21;5.00;;;2.40;;
13230;SDS011;6681;53.254;10.398;2023-03-31T08:23:46;5.17;;;2.10;;
13230;SDS011;6681;53.254;10.398;2023-03-31T08:26:13;5.97;;;2.10;;
13230;SDS011;6681;53.254;10.398;2023-03-31T08:28:46;9.80;;;3.30;;
13230;SDS011;6681;53.254;10.398;2023-03-31T08:31:13;9.00;;;2.33;;
13230;SDS011;6681;53.254;10.398;2023-03-31T08:33:40;5.40;;;2.37;;
13230;SDS011;6681;53.254;10.398;2023-03-31T08:36:06;3.90;;;2.43;;
13230;SDS011;6681;53.254;10.398;2023-03-31T08:38:34;5.50;;;2.37;;
13230;SDS011;6681;53.254;10.398;2023-03-31T08:41:02;10.70;;;2.00;;
13230;SDS011;6681;53.254;10.398;2023-03-31T08:43:33;8.77;;;1.87;;
13230;SDS011;6681;53.254;10.398;2023-03-31T08:46:05;9.73;;;2.70;;
13230;SDS011;6681;53.254;10.398;2023-03-31T08:48:47;8.37;;;2.13;;
13230;SDS011;6681;53.254;10.398;2023-03-31T08:51:17;6.57;;;1.73;;
13230;SDS011;6681;53.254;10.398;2023-03-31T08:54:00;4.87;;;1.77;;
13230;SDS011;6681;53.254;10.398;2023-03-31T08:56:33;5.77;;;2.03;;
13230;SDS011;6681;53.254;10.398;2023-03-31T08:59:04;3.07;;;1.53;;
13230;SDS011;6681;53.254;10.398;2023-03-31T09:18:10;4.10;;;2.93;;
13230;SDS011;6681;53.254;10.398;2023-03-31T09:21:45;4.03;;;1.40;;
13230;SDS011;6681;53.254;10.398;2023-03-31T09:26:59;3.03;;;2.00;;
13230;SDS011;6681;53.254;10.398;2023-03-31T09:29:42;3.07;;;1.90;;
13230;SDS011;6681;53.254;10.398;2023-03-31T09:32:30;4.93;;;2.27;;
13230;SDS011;6681;53.254;10.398;2023-03-31T09:34:58;3.33;;;1.90;;
13230;SDS011;6681;53.254;10.398;2023-03-31T09:37:42;4.70;;;2.30;;
13230;SDS011;6681;53.254;10.398;2023-03-31T09:40:12;6.37;;;2.23;;
13230;SDS011;6681;53.254;10.398;2023-03-31T09:42:41;3.90;;;1.80;;
13230;SDS011;6681;53.254;10.398;2023-03-31T09:45:12;3.73;;;2.20;;
13230;SDS011;6681;53.254;10.398;2023-03-31T09:47:41;2.73;;;1.70;;
13230;SDS011;6681;53.254;10.398;2023-03-31T09:50:09;3.43;;;2.00;;
13230;SDS011;6681;53.254;10.398;2023-03-31T09:52:43;7.60;;;3.00;;
13230;SDS011;6681;53.254;10.398;2023-03-31T09:55:19;3.07;;;2.03;;
13230;SDS011;6681;53.254;10.398;2023-03-31T09:57:45;3.33;;;1.73;;
13230;SDS011;6681;53.254;10.398;2023-03-31T10:02:55;5.93;;;2.93;;
13230;SDS011;6681;53.254;10.398;2023-03-31T10:13:23;3.80;;;1.60;;
13230;SDS011;6681;53.254;10.398;2023-03-31T10:15:51;7.70;;;2.30;;
13230;SDS011;6681;53.254;10.398;2023-03-31T10:18:19;5.63;;;2.10;;
13230;SDS011;6681;53.254;10.398;2023-03-31T10:20:50;2.77;;;1.53;;
13230;SDS011;6681;53.254;10.398;2023-03-31T10:23:27;4.37;;;2.00;;
13230;SDS011;6681;53.254;10.398;2023-03-31T10:25:57;4.43;;;2.93;;
13230;SDS011;6681;53.254;10.398;2023-03-31T10:28:24;2.40;;;1.50;;
13230;SDS011;6681;53.254;10.398;2023-03-31T10:30:51;7.47;;;2.20;;
13230;SDS011;6681;53.254;10.398;2023-03-31T10:33:22;4.13;;;2.37;;
13230;SDS011;6681;53.254;10.398;2023-03-31T10:35:56;7.27;;;1.87;;
13230;SDS011;6681;53.254;10.398;2023-03-31T10:38:25;5.87;;;2.10;;
13230;SDS011;6681;53.254;10.398;2023-03-31T10:40:54;2.17;;;2.00;;
13230;SDS011;6681;53.254;10.398;2023-03-31T10:43:28;4.53;;;1.80;;
13230;SDS011;6681;53.254;10.398;2023-03-31T10:45:58;4.53;;;1.47;;
13230;SDS011;6681;53.254;10.398;2023-03-31T10:48:30;2.20;;;1.70;;
13230;SDS011;6681;53.254;10.398;2023-03-31T10:53:46;5.13;;;2.13;;
13230;SDS011;6681;53.254;10.398;2023-03-31T10:56:20;9.93;;;2.00;;
13230;SDS011;6681;53.254;10.398;2023-03-31T11:10:36;4.27;;;2.73;;
13230;SDS011;6681;53.254;10.398;2023-03-31T11:18:31;5.00;;;2.30;;
13230;SDS011;6681;53.254;10.398;2023-03-31T11:26:09;3.00;;;2.20;;
13230;SDS011;6681;53.254;10.398;2023-03-31T11:43:25;8.07;;;3.73;;
13230;SDS011;6681;53.254;10.398;2023-03-31T11:45:39;5.00;;;2.73;;
13230;SDS011;6681;53.254;10.398;2023-03-31T11:51:26;4.47;;;2.60;;
13230;SDS011;6681;53.254;10.398;2023-03-31T11:54:04;6.07;;;3.03;;
13230;SDS011;6681;53.254;10.398;2023-03-31T11:56:37;6.20;;;1.93;;
13230;SDS011;6681;53.254;10.398;2023-03-31T11:59:05;8.13;;;2.57;;
13230;SDS011;6681;53.254;10.398;2023-03-31T12:04:02;4.37;;;2.23;;
13230;SDS011;6681;53.254;10.398;2023-03-31T12:06:45;5.77;;;3.07;;
13230;SDS011;6681;53.254;10.398;2023-03-31T12:09:20;4.30;;;3.13;;
13230;SDS011;6681;53.254;10.398;2023-03-31T12:12:17;5.43;;;2.70;;
13230;SDS011;6681;53.254;10.398;2023-03-31T12:14:52;6.03;;;2.70;;
13230;SDS011;6681;53.254;10.398;2023-03-31T12:17:25;4.37;;;2.13;;
13230;SDS011;6681;53.254;10.398;2023-03-31T12:25:04;4.83;;;3.33;;
13230;SDS011;6681;53.254;10.398;2023-03-31T12:30:00;7.37;;;3.37;;
13230;SDS011;6681;53.254;10.398;2023-03-31T12:32:56;3.93;;;2.60;;
13230;SDS011;6681;53.254;10.398;2023-03-31T12:35:28;4.37;;;3.30;;
13230;SDS011;6681;53.254;10.398;2023-03-31T12:38:24;10.17;;;3.30;;
13230;SDS011;6681;53.254;10.398;2023-03-31T12:41:07;6.73;;;3.10;;
13230;SDS011;6681;53.254;10.398;2023-03-31T12:57:24;3.33;;;2.53;;
13230;SDS011;6681;53.254;10.398;2023-03-31T13:02:38;6.53;;;2.53;;
13230;SDS011;6681;53.254;10.398;2023-03-31T13:08:01;3.17;;;1.93;;
13230;SDS011;6681;53.254;10.398;2023-03-31T13:10:31;8.70;;;2.17;;
13230;SDS011;6681;53.254;10.398;2023-03-31T13:13:04;3.80;;;2.07;;
13230;SDS011;6681;53.254;10.398;2023-03-31T13:15:37;4.67;;;1.90;;
13230;SDS011;6681;53.254;10.398;2023-03-31T13:18:04;5.77;;;1.67;;
13230;SDS011;6681;53.254;10.398;2023-03-31T13:20:32;4.53;;;1.30;;
13230;SDS011;6681;53.254;10.398;2023-03-31T13:23:14;3.03;;;1.50;;
13230;SDS011;6681;53.254;10.398;2023-03-31T13:25:46;2.07;;;1.20;;
13230;SDS011;6681;53.254;10.398;2023-03-31T13:30:55;4.17;;;2.00;;
13230;SDS011;6681;53.254;10.398;2023-03-31T13:33:33;2.37;;;1.00;;
13230;SDS011;6681;53.254;10.398;2023-03-31T13:41:54;2.13;;;1.20;;
13230;SDS011;6681;53.254;10.398;2023-03-31T13:45:05;1.07;;;1.00;;
13230;SDS011;6681;53.254;10.398;2023-03-31T13:56:30;0.93;;;0.90;;
13230;SDS011;6681;53.254;10.398;2023-03-31T14:07:37;1.90;;;1.80;;
13230;SDS011;6681;53.254;10.398;2023-03-31T14:13:06;1.80;;;1.13;;
13230;SDS011;6681;53.254;10.398;2023-03-31T14:15:37;1.33;;;1.07;;
13230;SDS011;6681;53.254;10.398;2023-03-31T14:18:06;1.80;;;1.23;;
13230;SDS011;6681;53.254;10.398;2023-03-31T14:25:48;1.13;;;1.03;;
13230;SDS011;6681;53.254;10.398;2023-03-31T14:31:36;2.30;;;1.03;;
13230;SDS011;6681;53.254;10.398;2023-03-31T14:36:40;1.13;;;0.70;;
13230;SDS011;6681;53.254;10.398;2023-03-31T14:39:11;1.70;;;0.60;;
13230;SDS011;6681;53.254;10.398;2023-03-31T14:41:41;1.27;;;1.17;;
13230;SDS011;6681;53.254;10.398;2023-03-31T14:44:11;1.60;;;0.80;;
13230;SDS011;6681;53.254;10.398;2023-03-31T14:46:40;1.23;;;0.77;;
13230;SDS011;6681;53.254;10.398;2023-03-31T14:49:24;1.23;;;0.70;;
13230;SDS011;6681;53.254;10.398;2023-03-31T14:51:52;2.30;;;1.00;;
13230;SDS011;6681;53.254;10.398;2023-03-31T14:54:20;1.07;;;0.97;;
13230;SDS011;6681;53.254;10.398;2023-03-31T14:56:48;2.10;;;1.40;;
13230;SDS011;6681;53.254;10.398;2023-03-31T14:59:23;1.67;;;0.93;;
13230;SDS011;6681;53.254;10.398;2023-03-31T15:01:51;0.77;;;0.73;;
13230;SDS011;6681;53.254;10.398;2023-03-31T15:04:21;4.70;;;2.20;;
13230;SDS011;6681;53.254;10.398;2023-03-31T15:06:49;2.07;;;1.10;;
13230;SDS011;6681;53.254;10.398;2023-03-31T15:09:19;0.93;;;0.50;;
13230;SDS011;6681;53.254;10.398;2023-03-31T15:11:52;2.83;;;0.60;;
13230;SDS011;6681;53.254;10.398;2023-03-31T15:14:21;1.20;;;0.80;;
13230;SDS011;6681;53.254;10.398;2023-03-31T15:16:48;1.80;;;0.80;;
13230;SDS011;6681;53.254;10.398;2023-03-31T15:19:21;1.13;;;0.60;;
13230;SDS011;6681;53.254;10.398;2023-03-31T15:21:53;3.73;;;0.60;;
13230;SDS011;6681;53.254;10.398;2023-03-31T15:24:21;1.53;;;0.67;;
13230;SDS011;6681;53.254;10.398;2023-03-31T15:29:21;0.60;;;0.60;;
13230;SDS011;6681;53.254;10.398;2023-03-31T15:31:56;2.50;;;0.80;;
13230;SDS011;6681;53.254;10.398;2023-03-31T15:34:25;0.80;;;0.80;;
13230;SDS011;6681;53.254;10.398;2023-03-31T15:36:57;3.27;;;1.03;;
13230;SDS011;6681;53.254;10.398;2023-03-31T15:39:23;5.77;;;1.53;;
13230;SDS011;6681;53.254;10.398;2023-03-31T15:41:51;3.43;;;2.27;;
13230;SDS011;6681;53.254;10.398;2023-03-31T15:44:37;3.53;;;2.40;;
13230;SDS011;6681;53.254;10.398;2023-03-31T15:47:10;2.33;;;1.30;;
13230;SDS011;6681;53.254;10.398;2023-03-31T15:49:53;3.33;;;1.83;;
13230;SDS011;6681;53.254;10.398;2023-03-31T15:52:23;5.40;;;1.83;;
13230;SDS011;6681;53.254;10.398;2023-03-31T15:54:53;1.63;;;1.00;;
13230;SDS011;6681;53.254;10.398;2023-03-31T15:57:18;3.03;;;1.20;;
13230;SDS011;6681;53.254;10.398;2023-03-31T15:59:49;3.63;;;0.80;;
13230;SDS011;6681;53.254;10.398;2023-03-31T16:02:21;0.87;;;0.63;;
13230;SDS011;6681;53.254;10.398;2023-03-31T16:04:49;3.30;;;1.03;;
13230;SDS011;6681;53.254;10.398;2023-03-31T16:07:22;1.13;;;0.93;;
13230;SDS011;6681;53.254;10.398;2023-03-31T16:09:59;2.07;;;0.90;;
13230;SDS011;6681;53.254;10.398;2023-03-31T16:17:57;5.00;;;0.90;;
13230;SDS011;6681;53.254;10.398;2023-03-31T16:20:31;5.20;;;1.13;;
13230;SDS011;6681;53.254;10.398;2023-03-31T16:23:18;1.10;;;0.93;;
13230;SDS011;6681;53.254;10.398;2023-03-31T16:25:47;1.47;;;0.97;;
13230;SDS011;6681;53.254;10.398;2023-03-31T16:28:20;1.20;;;0.90;;
13230;SDS011;6681;53.254;10.398;2023-03-31T16:30:49;2.90;;;1.10;;
13230;SDS011;6681;53.254;10.398;2023-03-31T16:33:16;4.07;;;1.03;;
13230;SDS011;6681;53.254;10.398;2023-03-31T16:35:47;1.43;;;1.17;;
13230;SDS011;6681;53.254;10.398;2023-03-31T16:38:15;2.83;;;1.33;;
13230;SDS011;6681;53.254;10.398;2023-03-31T16:40:43;1.90;;;1.73;;
13230;SDS011;6681;53.254;10.398;2023-03-31T16:45:40;1.70;;;1.20;;
13230;SDS011;6681;53.254;10.398;2023-03-31T16:48:09;1.73;;;1.60;;
13230;SDS011;6681;53.254;10.398;2023-03-31T16:50:34;3.07;;;1.30;;
13230;SDS011;6681;53.254;10.398;2023-03-31T16:53:00;2.00;;;1.23;;
13230;SDS011;6681;53.254;10.398;2023-03-31T16:55:27;2.10;;;1.20;;
13230;SDS011;6681;53.254;10.398;2023-03-31T16:57:55;3.97;;;1.43;;
13230;SDS011;6681;53.254;10.398;2023-03-31T17:00:23;1.83;;;1.30;;
13230;SDS011;6681;53.254;10.398;2023-03-31T17:02:48;4.50;;;2.80;;
13230;SDS011;6681;53.254;10.398;2023-03-31T17:05:14;2.63;;;1.87;;
13230;SDS011;6681;53.254;10.398;2023-03-31T17:07:40;8.13;;;2.33;;
13230;SDS011;6681;53.254;10.398;2023-03-31T17:10:06;1.80;;;1.33;;
13230;SDS011;6681;53.254;10.398;2023-03-31T17:12:32;5.27;;;1.83;;
13230;SDS011;6681;53.254;10.398;2023-03-31T17:14:58;2.43;;;1.80;;
13230;SDS011;6681;53.254;10.398;2023-03-31T17:17:24;3.40;;;1.33;;
13230;SDS011;6681;53.254;10.398;2023-03-31T17:19:49;1.40;;;1.40;;
13230;SDS011;6681;53.254;10.398;2023-03-31T17:22:20;2.57;;;1.87;;
13230;SDS011;6681;53.254;10.398;2023-03-31T17:24:46;2.40;;;1.43;;
13230;SDS011;6681;53.254;10.398;2023-03-31T17:27:12;1.67;;;1.57;;
13230;SDS011;6681;53.254;10.398;2023-03-31T17:29:41;3.77;;;2.17;;
13230;SDS011;6681;53.254;10.398;2023-03-31T17:32:07;4.37;;;2.70;;
13230;SDS011;6681;53.254;10.398;2023-03-31T17:34:35;2.30;;;1.97;;
13230;SDS011;6681;53.254;10.398;2023-03-31T17:37:01;5.90;;;2.50;;
13230;SDS011;6681;53.254;10.398;2023-03-31T17:39:27;2.57;;;1.50;;
13230;SDS011;6681;53.254;10.398;2023-03-31T17:41:53;1.77;;;1.67;;
13230;SDS011;6681;53.254;10.398;2023-03-31T17:44:19;2.03;;;1.67;;
13230;SDS011;6681;53.254;10.398;2023-03-31T17:46:44;3.50;;;1.63;;
13230;SDS011;6681;53.254;10.398;2023-03-31T17:49:10;2.47;;;1.50;;
13230;SDS011;6681;53.254;10.398;2023-03-31T17:51:36;3.07;;;1.77;;
13230;SDS011;6681;53.254;10.398;2023-03-31T17:54:02;6.30;;;1.97;;
13230;SDS011;6681;53.254;10.398;2023-03-31T17:56:27;8.37;;;1.90;;
13230;SDS011;6681;53.254;10.398;2023-03-31T17:58:53;4.03;;;2.37;;
13230;SDS011;6681;53.254;10.398;2023-03-31T18:01:19;2.60;;;2.40;;
13230;SDS011;6681;53.254;10.398;2023-03-31T18:03:45;6.97;;;2.80;;
13230;SDS011;6681;53.254;10.398;2023-03-31T18:06:12;8.97;;;4.70;;
13230;SDS011;6681;53.254;10.398;2023-03-31T18:08:39;4.90;;;3.67;;
13230;SDS011;6681;53.254;10.398;2023-03-31T18:11:06;11.47;;;7.10;;
13230;SDS011;6681;53.254;10.398;2023-03-31T18:13:33;20.67;;;8.93;;
13230;SDS011;6681;53.254;10.398;2023-03-31T18:16:00;9.90;;;4.50;;
13230;SDS011;6681;53.254;10.398;2023-03-31T18:18:26;14.17;;;6.53;;